createdAt,value
2022-08-12T00:02:03.888Z,15.25
2022-08-12T00:04:53.343Z,15.22
2022-08-12T00:07:39.905Z,15.19
2022-08-12T00:10:26.755Z,15.15
2022-08-12T00:13:14.137Z,15.16
2022-08-12T00:16:04.165Z,15.17
2022-08-12T00:18:50.815Z,15.15
2022-08-12T00:21:38.658Z,15.13
2022-08-12T00:24:26.533Z,15.10
2022-08-12T00:27:15.004Z,15.06
2022-08-12T00:30:02.805Z,15.01
2022-08-12T00:32:54.674Z,14.96
2022-08-12T00:35:44.359Z,14.94
2022-08-12T00:38:31.585Z,14.92
2022-08-12T00:41:19.129Z,14.91
2022-08-12T00:43:48.651Z,14.91
2022-08-12T00:46:31.622Z,14.92
2022-08-12T00:49:02.039Z,14.91
2022-08-12T00:51:48.946Z,14.88
2022-08-12T00:54:18.294Z,14.86
2022-08-12T00:56:51.279Z,14.85
2022-08-12T00:59:19.797Z,14.85
2022-08-12T01:02:10.254Z,14.83
2022-08-12T01:04:59.312Z,14.80
2022-08-12T01:07:47.491Z,14.76
2022-08-12T01:10:33.968Z,14.73
2022-08-12T01:13:07.322Z,14.69
2022-08-12T01:15:53.043Z,14.61
2022-08-12T01:18:23.586Z,14.57
2022-08-12T01:21:09.570Z,14.56
2022-08-12T01:23:41.051Z,14.55
2022-08-12T01:26:16.831Z,14.56
2022-08-12T01:28:50.280Z,14.56
2022-08-12T01:31:20.530Z,14.56
2022-08-12T01:34:35.644Z,14.56
2022-08-12T01:37:00.726Z,14.56
2022-08-12T01:40:33.882Z,14.57
2022-08-12T01:42:46.801Z,14.58
2022-08-12T01:45:17.680Z,14.58
2022-08-12T01:48:00.895Z,14.59
2022-08-12T01:50:43.487Z,14.58
2022-08-12T01:53:15.036Z,14.54
2022-08-12T01:55:46.775Z,14.51
2022-08-12T01:58:57.580Z,14.45
2022-08-12T02:01:34.521Z,14.37
2022-08-12T02:04:39.885Z,14.28
2022-08-12T02:07:54.098Z,14.20
2022-08-12T02:10:50.380Z,14.14
2022-08-12T02:13:55.523Z,14.09
2022-08-12T02:16:30.478Z,14.04
2022-08-12T02:19:21.937Z,14.00
2022-08-12T02:22:22.320Z,13.99
2022-08-12T02:24:54.296Z,13.97
2022-08-12T02:27:28.078Z,13.97
2022-08-12T02:29:56.094Z,13.97
2022-08-12T02:32:24.273Z,13.98
2022-08-12T02:34:52.788Z,13.97
2022-08-12T02:37:23.962Z,13.95
2022-08-12T02:39:55.166Z,13.93
2022-08-12T02:42:25.205Z,13.91
2022-08-12T02:44:56.317Z,13.90
2022-08-12T02:48:00.077Z,13.88
2022-08-12T02:50:20.606Z,13.84
2022-08-12T02:52:52.071Z,13.80
2022-08-12T02:55:28.927Z,13.75
2022-08-12T02:58:12.596Z,13.72
2022-08-12T03:00:44.336Z,13.71
2022-08-12T03:03:14.101Z,13.71
2022-08-12T03:05:52.606Z,13.72
2022-08-12T03:08:32.651Z,13.71
2022-08-12T03:11:14.434Z,13.72
2022-08-12T03:13:51.372Z,13.75
2022-08-12T03:16:23.909Z,13.76
2022-08-12T03:18:53.260Z,13.75
2022-08-12T03:21:53.138Z,13.75
2022-08-12T03:24:16.609Z,13.76
2022-08-12T03:26:47.541Z,13.78
2022-08-12T03:29:17.199Z,13.81
2022-08-12T03:31:46.846Z,13.85
2022-08-12T03:34:23.809Z,13.88
2022-08-12T03:36:55.451Z,13.87
2022-08-12T03:39:39.190Z,13.84
2022-08-12T03:42:35.574Z,13.83
2022-08-12T03:45:35.007Z,13.82
2022-08-12T03:48:36.936Z,13.79
2022-08-12T03:51:23.903Z,13.78
2022-08-12T03:54:11.540Z,13.79
2022-08-12T03:56:58.662Z,13.82
2022-08-12T03:59:45.091Z,13.86
2022-08-12T04:02:16.468Z,13.93
2022-08-12T04:04:45.897Z,14.00
2022-08-12T04:07:16.437Z,14.07
2022-08-12T04:09:46.395Z,14.12
2022-08-12T04:12:33.757Z,14.18
2022-08-12T04:15:02.899Z,14.28
2022-08-12T04:17:32.051Z,14.36
2022-08-12T04:20:00.250Z,14.41
2022-08-12T04:22:29.990Z,14.46
2022-08-12T04:25:01.703Z,14.51
2022-08-12T04:27:32.444Z,14.55
2022-08-12T04:30:17.080Z,14.59
2022-08-12T04:32:54.033Z,14.64
2022-08-12T04:35:22.190Z,14.69
2022-08-12T04:37:58.312Z,14.72
2022-08-12T04:40:31.699Z,14.75
2022-08-12T04:43:01.838Z,14.78
2022-08-12T04:45:34.919Z,14.81
2022-08-12T04:48:03.853Z,14.85
2022-08-12T04:50:36.331Z,14.93
2022-08-12T04:53:07.997Z,15.02
2022-08-12T04:55:41.107Z,15.09
2022-08-12T04:58:10.311Z,15.15
2022-08-12T05:00:39.071Z,15.25
2022-08-12T05:03:07.655Z,15.37
2022-08-12T05:05:38.062Z,15.48
2022-08-12T05:08:12.007Z,15.57
2022-08-12T05:10:40.067Z,15.63
2022-08-12T05:13:11.526Z,15.68
2022-08-12T05:16:05.179Z,15.72
2022-08-12T05:18:30.085Z,15.75
2022-08-12T05:20:59.514Z,15.79
2022-08-12T05:23:28.086Z,15.83
2022-08-12T05:25:57.342Z,15.87
2022-08-12T05:28:27.164Z,15.93
2022-08-12T05:30:57.249Z,16.04
2022-08-12T05:33:41.061Z,16.41
2022-08-12T05:36:15.473Z,17.16
2022-08-12T05:38:56.951Z,17.90
2022-08-12T05:41:36.160Z,18.72
2022-08-12T05:44:07.452Z,19.46
2022-08-12T05:46:37.181Z,20.06
2022-08-12T05:49:06.220Z,20.51
2022-08-12T05:51:40.328Z,20.94
2022-08-12T05:54:11.365Z,21.38
2022-08-12T05:56:41.712Z,21.75
2022-08-12T05:59:12.320Z,22.02
2022-08-12T06:02:10.005Z,22.19
2022-08-12T06:04:31.499Z,22.39
2022-08-12T06:06:59.898Z,22.72
2022-08-12T06:09:30.459Z,23.05
2022-08-12T06:12:04.633Z,23.38
2022-08-12T06:14:37.798Z,23.61
2022-08-12T06:17:09.385Z,23.96
2022-08-12T06:20:22.722Z,24.26
2022-08-12T06:22:27.036Z,24.42
2022-08-12T06:24:55.384Z,24.45
2022-08-12T06:27:23.553Z,24.30
2022-08-12T06:30:08.973Z,24.17
2022-08-12T06:33:04.262Z,24.03
2022-08-12T06:35:48.271Z,24.20
2022-08-12T06:38:22.474Z,24.30
2022-08-12T06:41:13.689Z,24.35
2022-08-12T06:44:07.187Z,24.46
2022-08-12T06:46:32.107Z,24.62
2022-08-12T06:49:00.696Z,24.68
2022-08-12T06:51:31.262Z,24.69
2022-08-12T06:54:01.039Z,24.77
2022-08-12T06:56:59.675Z,25.02
2022-08-12T06:59:17.649Z,24.99
2022-08-12T07:01:49.797Z,24.99
2022-08-12T07:04:37.815Z,25.06
2022-08-12T07:07:09.855Z,25.20
2022-08-12T07:10:05.198Z,25.36
2022-08-12T07:12:30.669Z,25.31
2022-08-12T07:15:02.196Z,25.35
2022-08-12T07:17:36.726Z,25.39
2022-08-12T07:20:20.131Z,25.50
2022-08-12T07:23:00.532Z,25.87
2022-08-12T07:25:40.392Z,26.21
2022-08-12T07:28:25.099Z,26.22
2022-08-12T07:30:54.868Z,26.14
2022-08-12T07:33:28.325Z,26.14
2022-08-12T07:35:58.912Z,26.04
2022-08-12T07:38:36.133Z,25.96
2022-08-12T07:41:15.867Z,26.02
2022-08-12T07:44:00.042Z,26.05
2022-08-12T07:46:40.371Z,26.15
2022-08-12T07:49:14.127Z,26.46
2022-08-12T07:51:44.249Z,26.66
2022-08-12T07:54:13.950Z,26.72
2022-08-12T07:56:43.198Z,26.90
2022-08-12T07:59:11.929Z,26.78
2022-08-12T08:01:40.349Z,26.68
2022-08-12T08:04:27.606Z,26.83
2022-08-12T08:06:57.968Z,26.89
2022-08-12T08:09:26.325Z,27.14
2022-08-12T08:12:19.027Z,27.17
2022-08-12T08:14:49.850Z,27.04
2022-08-12T08:17:19.303Z,26.97
2022-08-12T08:20:03.804Z,26.79
2022-08-12T08:22:50.285Z,27.13
2022-08-12T08:25:37.251Z,27.54
2022-08-12T08:28:12.121Z,27.58
2022-08-12T08:30:46.236Z,27.38
2022-08-12T08:33:24.670Z,27.23
2022-08-12T08:36:05.340Z,27.14
2022-08-12T08:38:35.382Z,27.30
2022-08-12T08:42:17.838Z,27.42
2022-08-12T08:44:11.960Z,27.37
2022-08-12T08:46:43.829Z,27.29
2022-08-12T08:49:13.096Z,27.34
2022-08-12T08:51:42.926Z,27.46
2022-08-12T08:54:12.856Z,27.43
2022-08-12T08:56:50.486Z,27.29
2022-08-12T08:59:20.080Z,27.09
2022-08-12T09:01:48.843Z,27.01
2022-08-12T09:05:09.953Z,26.98
2022-08-12T09:07:17.634Z,26.95
2022-08-12T09:10:03.473Z,26.93
2022-08-12T09:12:55.226Z,26.89
2022-08-12T09:15:35.393Z,27.07
2022-08-12T09:18:09.096Z,27.24
2022-08-12T09:20:39.577Z,26.88
2022-08-12T09:26:04.570Z,26.56
2022-08-12T09:28:33.565Z,26.54
2022-08-12T09:32:03.696Z,26.36
2022-08-12T09:34:29.046Z,26.25
2022-08-12T09:36:59.906Z,26.35
2022-08-12T09:40:08.126Z,26.53
2022-08-12T09:42:49.220Z,26.63
2022-08-12T09:46:11.420Z,26.57
2022-08-12T09:48:21.972Z,26.42
2022-08-12T09:50:55.110Z,26.34
2022-08-12T09:53:35.875Z,26.15
2022-08-12T09:57:00.177Z,26.14
2022-08-12T09:59:03.121Z,26.25
2022-08-12T10:01:35.424Z,26.26
2022-08-12T10:04:20.692Z,26.26
2022-08-12T10:06:54.728Z,26.33
2022-08-12T10:09:28.912Z,26.41
2022-08-12T10:12:33.456Z,26.42
2022-08-12T10:15:02.537Z,26.52
2022-08-12T10:17:31.386Z,26.61
2022-08-12T10:20:02.652Z,26.70
2022-08-12T10:22:39.436Z,26.88
2022-08-12T10:25:51.648Z,26.99
2022-08-12T10:28:38.923Z,27.08
2022-08-12T10:31:16.602Z,27.07
2022-08-12T10:34:05.071Z,27.11
2022-08-12T10:36:40.259Z,27.11
2022-08-12T10:40:01.879Z,27.18
2022-08-12T10:42:29.482Z,27.26
2022-08-12T10:45:01.659Z,27.20
2022-08-12T10:48:20.643Z,27.22
2022-08-12T10:50:35.926Z,27.24
2022-08-12T10:53:15.587Z,27.34
2022-08-12T10:55:55.545Z,27.48
2022-08-12T10:58:31.587Z,27.55
2022-08-12T11:01:25.711Z,27.58
2022-08-12T11:04:26.472Z,27.64
2022-08-12T11:07:05.822Z,27.64
2022-08-12T11:09:41.614Z,27.59
2022-08-12T11:12:56.078Z,27.53
2022-08-12T11:15:18.488Z,27.71
2022-08-12T11:17:52.471Z,27.93
2022-08-12T11:20:23.977Z,28.09
2022-08-12T11:22:58.907Z,28.24
2022-08-12T11:25:56.867Z,28.49
2022-08-12T11:28:17.028Z,28.68
2022-08-12T11:31:01.330Z,28.59
2022-08-12T11:34:06.045Z,28.47
2022-08-12T11:36:22.083Z,28.28
2022-08-12T11:38:51.423Z,28.24
2022-08-12T11:41:28.090Z,28.30
2022-08-12T11:44:35.032Z,28.34
2022-08-12T11:46:52.762Z,28.32
2022-08-12T11:49:32.753Z,28.35
2022-08-12T11:52:02.205Z,28.37
2022-08-12T11:54:31.659Z,28.33
2022-08-12T11:57:02.513Z,28.28
2022-08-12T12:02:21.432Z,28.29
2022-08-12T12:04:53.913Z,28.21
2022-08-12T12:07:33.964Z,28.17
2022-08-12T12:10:21.029Z,28.18
2022-08-12T12:12:49.752Z,28.28
2022-08-12T12:15:25.362Z,28.29
2022-08-12T12:18:05.823Z,28.23
2022-08-12T12:20:35.295Z,28.28
2022-08-12T12:23:04.466Z,28.36
2022-08-12T12:26:07.211Z,28.37
2022-08-12T12:28:36.881Z,28.29
2022-08-12T12:31:15.035Z,28.16
2022-08-12T12:33:58.009Z,28.13
2022-08-12T12:36:30.254Z,28.11
2022-08-12T12:38:59.951Z,28.15
2022-08-12T12:42:42.442Z,28.21
2022-08-12T12:44:25.989Z,28.32
2022-08-12T12:46:58.535Z,28.51
2022-08-12T12:49:28.950Z,28.73
2022-08-12T12:52:18.797Z,28.92
2022-08-12T12:54:53.056Z,29.02
2022-08-12T12:57:36.389Z,29.07
2022-08-12T13:00:15.227Z,29.10
2022-08-12T13:02:58.033Z,29.12
2022-08-12T13:05:27.689Z,29.15
2022-08-12T13:08:01.063Z,29.14
2022-08-12T13:10:37.030Z,29.17
2022-08-12T13:14:06.759Z,29.24
2022-08-12T13:15:59.206Z,29.26
2022-08-12T13:18:36.588Z,29.24
2022-08-12T13:21:15.748Z,29.29
2022-08-12T13:23:58.043Z,29.41
2022-08-12T13:26:26.036Z,29.49
2022-08-12T13:28:56.144Z,29.53
2022-08-12T13:31:25.013Z,29.58
2022-08-12T13:34:28.510Z,29.61
2022-08-12T13:36:42.595Z,29.44
2022-08-12T13:39:10.636Z,29.32
2022-08-12T13:41:39.212Z,29.22
2022-08-12T13:44:10.681Z,29.11
2022-08-12T13:46:42.247Z,29.17
2022-08-12T13:49:17.500Z,29.24
2022-08-12T13:52:01.980Z,29.43
2022-08-12T13:54:31.758Z,29.64
2022-08-12T13:57:01.381Z,29.82
2022-08-12T13:59:48.252Z,29.80
2022-08-12T14:02:24.696Z,29.65
2022-08-12T14:04:56.769Z,29.56
2022-08-12T14:07:26.075Z,29.47
2022-08-12T14:10:16.305Z,29.41
2022-08-12T14:12:54.025Z,29.18
2022-08-12T14:15:36.437Z,28.73
2022-08-12T14:18:25.724Z,28.67
2022-08-12T14:20:58.712Z,28.70
2022-08-12T14:24:04.016Z,28.79
2022-08-12T14:26:21.544Z,28.82
2022-08-12T14:28:57.298Z,28.84
2022-08-12T14:31:31.969Z,28.97
2022-08-12T14:34:00.342Z,29.10
2022-08-12T14:36:34.041Z,29.12
2022-08-12T14:39:05.034Z,29.12
2022-08-12T14:41:36.504Z,29.18
2022-08-12T14:44:57.268Z,29.22
2022-08-12T14:47:07.726Z,29.12
2022-08-12T14:50:33.484Z,29.07
2022-08-12T14:53:15.380Z,29.05
2022-08-12T14:58:03.086Z,28.87
2022-08-12T15:00:52.319Z,28.69
2022-08-12T15:03:52.553Z,28.60
2022-08-12T15:06:39.076Z,28.53
2022-08-12T15:09:12.286Z,28.41
2022-08-12T15:11:54.442Z,28.38
2022-08-12T15:14:30.215Z,28.37
2022-08-12T15:17:00.112Z,28.49
2022-08-12T15:20:31.512Z,28.58
2022-08-12T15:22:37.912Z,28.52
2022-08-12T15:25:08.039Z,28.37
2022-08-12T15:28:05.053Z,28.26
2022-08-12T15:30:33.890Z,28.21
2022-08-12T15:33:12.243Z,28.18
2022-08-12T15:35:53.240Z,28.04
2022-08-12T15:38:27.218Z,28.07
2022-08-12T15:40:58.919Z,27.98
2022-08-12T15:44:16.119Z,27.90
2022-08-12T15:46:21.125Z,27.79
2022-08-12T15:48:54.576Z,27.77
2022-08-12T15:51:59.570Z,27.74
2022-08-12T15:54:35.041Z,27.73
2022-08-12T15:57:08.165Z,27.66
2022-08-12T16:00:03.669Z,27.55
2022-08-12T16:02:29.755Z,27.41
2022-08-12T16:04:58.679Z,27.35
2022-08-12T16:07:29.834Z,27.30
2022-08-12T16:10:06.999Z,27.23
2022-08-12T16:12:54.685Z,27.14
2022-08-12T16:15:26.205Z,27.05
2022-08-12T16:18:19.740Z,26.95
2022-08-12T16:20:46.690Z,26.90
2022-08-12T16:23:35.759Z,26.91
2022-08-12T16:26:14.861Z,26.85
2022-08-12T16:28:47.183Z,26.78
2022-08-12T16:31:23.568Z,26.73
2022-08-12T16:33:59.001Z,26.66
2022-08-12T16:36:29.998Z,26.58
2022-08-12T16:39:01.317Z,26.51
2022-08-12T16:41:38.071Z,26.45
2022-08-12T16:44:09.251Z,26.39
2022-08-12T16:46:38.277Z,26.35
2022-08-12T16:49:09.363Z,26.30
2022-08-12T16:51:46.740Z,26.24
2022-08-12T16:54:18.612Z,26.19
2022-08-12T16:56:55.473Z,26.13
2022-08-12T16:59:52.924Z,26.07
2022-08-12T17:02:31.876Z,26.00
2022-08-12T17:05:05.372Z,25.93
2022-08-12T17:07:43.592Z,25.85
2022-08-12T17:10:18.357Z,25.74
2022-08-12T17:13:10.305Z,25.62
2022-08-12T17:15:50.639Z,25.53
2022-08-12T17:18:44.323Z,25.42
2022-08-12T17:21:19.757Z,25.29
2022-08-12T17:23:53.454Z,25.15
2022-08-12T17:26:28.418Z,24.99
2022-08-12T17:29:00.022Z,24.84
2022-08-12T17:32:00.806Z,24.69
2022-08-12T17:34:38.500Z,24.55
2022-08-12T17:37:07.482Z,24.44
2022-08-12T17:40:15.015Z,24.34
2022-08-12T17:42:32.997Z,24.25
2022-08-12T17:45:18.065Z,24.14
2022-08-12T17:48:02.122Z,24.00
2022-08-12T17:50:38.013Z,23.81
2022-08-12T17:53:10.821Z,23.63
2022-08-12T17:55:48.248Z,23.46
2022-08-12T17:58:21.628Z,23.27
2022-08-12T18:01:04.468Z,23.08
2022-08-12T18:03:58.209Z,22.90
2022-08-12T18:06:27.791Z,22.72
2022-08-12T18:08:59.421Z,22.55
2022-08-12T18:12:06.660Z,22.38
2022-08-12T18:14:38.034Z,22.19
2022-08-12T18:17:08.635Z,22.02
2022-08-12T18:20:06.206Z,21.86
2022-08-12T18:22:30.345Z,21.67
2022-08-12T18:25:04.031Z,21.53
2022-08-12T18:27:43.636Z,21.38
2022-08-12T18:30:20.993Z,21.23
2022-08-12T18:33:03.662Z,21.10
2022-08-12T18:35:46.511Z,20.98
2022-08-12T18:38:16.863Z,20.89
2022-08-12T18:41:06.160Z,20.82
2022-08-12T18:43:57.566Z,20.77
2022-08-12T18:46:55.358Z,20.72
2022-08-12T18:49:31.954Z,20.65
2022-08-12T18:52:05.223Z,20.59
2022-08-12T18:54:36.191Z,20.52
2022-08-12T18:57:19.326Z,20.45
2022-08-12T19:00:06.054Z,20.40
2022-08-12T19:02:40.556Z,20.34
2022-08-12T19:05:12.279Z,20.35
2022-08-12T19:07:57.872Z,20.31
2022-08-12T19:10:31.753Z,20.27
2022-08-12T19:13:24.032Z,20.21
2022-08-12T19:15:57.851Z,20.15
2022-08-12T19:18:29.170Z,20.09
2022-08-12T19:21:12.143Z,20.02
2022-08-12T19:24:04.821Z,19.96
2022-08-12T19:26:34.952Z,19.88
2022-08-12T19:29:05.299Z,19.81
2022-08-12T19:31:55.685Z,19.77
2022-08-12T19:37:22.625Z,19.64
2022-08-12T19:40:08.723Z,19.56
2022-08-12T19:43:00.639Z,19.50
2022-08-12T19:45:42.139Z,19.44
2022-08-12T19:48:16.983Z,19.38
2022-08-12T19:50:50.238Z,19.33
2022-08-12T19:53:24.634Z,19.28
2022-08-12T19:55:55.425Z,19.22
2022-08-12T19:58:24.921Z,19.17
2022-08-12T20:00:54.599Z,19.12
2022-08-12T20:03:38.106Z,19.07
2022-08-12T20:06:15.675Z,19.02
2022-08-12T20:08:48.775Z,18.97
2022-08-12T20:12:13.460Z,18.92
2022-08-12T20:14:19.445Z,18.88
2022-08-12T20:16:57.498Z,18.84
2022-08-12T20:20:01.270Z,18.80
2022-08-12T20:22:29.875Z,18.75
2022-08-12T20:25:09.109Z,18.71
2022-08-12T20:28:02.895Z,18.67
2022-08-12T20:30:52.523Z,18.62
2022-08-12T20:33:18.406Z,18.56
2022-08-12T20:36:13.547Z,18.52
2022-08-12T20:38:40.185Z,18.47
2022-08-12T20:41:17.383Z,18.43
2022-08-12T20:43:54.827Z,18.39
2022-08-12T20:46:29.632Z,18.36
2022-08-12T20:49:14.761Z,18.33
2022-08-12T20:51:55.315Z,18.29
2022-08-12T20:54:32.888Z,18.24
2022-08-12T20:57:08.811Z,18.21
2022-08-12T20:59:47.638Z,18.17
2022-08-12T21:02:24.457Z,18.16
2022-08-12T21:05:20.244Z,18.15
2022-08-12T21:07:51.533Z,18.15
2022-08-12T21:10:21.338Z,18.13
2022-08-12T21:12:55.147Z,18.11
2022-08-12T21:15:30.569Z,18.08
2022-08-12T21:18:28.765Z,18.06
2022-08-12T21:20:59.016Z,18.01
2022-08-12T21:23:31.000Z,17.96
2022-08-12T21:26:16.204Z,17.91
2022-08-12T21:28:58.498Z,17.87
2022-08-12T21:32:46.825Z,17.83
2022-08-12T21:34:26.113Z,17.79
2022-08-12T21:37:12.864Z,17.74
2022-08-12T21:39:41.523Z,17.70
2022-08-12T21:42:21.042Z,17.66
2022-08-12T21:45:46.568Z,17.64
2022-08-12T21:47:44.685Z,17.61
2022-08-12T21:50:15.454Z,17.59
2022-08-12T21:52:43.393Z,17.56
2022-08-12T21:55:19.462Z,17.53
2022-08-12T21:57:54.901Z,17.51
2022-08-12T22:00:36.745Z,17.48
2022-08-12T22:04:01.676Z,17.46
2022-08-12T22:06:31.418Z,17.44
2022-08-12T22:09:17.111Z,17.41
2022-08-12T22:11:56.118Z,17.39
2022-08-12T22:14:26.293Z,17.35
2022-08-12T22:16:56.306Z,17.33
2022-08-12T22:19:24.437Z,17.29
2022-08-12T22:21:55.645Z,17.26
2022-08-12T22:24:26.792Z,17.22
2022-08-12T22:27:08.327Z,17.19
2022-08-12T22:30:07.106Z,17.15
2022-08-12T22:32:43.708Z,17.10
2022-08-12T22:35:56.283Z,17.07
2022-08-12T22:38:23.653Z,17.02
2022-08-12T22:41:03.963Z,16.97
2022-08-12T22:44:00.148Z,16.92
2022-08-12T22:46:37.361Z,16.88
2022-08-12T22:49:06.656Z,16.85
2022-08-12T22:51:42.945Z,16.82
2022-08-12T22:54:36.033Z,16.80
2022-08-12T22:57:12.060Z,16.79
2022-08-12T22:59:55.790Z,16.79
2022-08-12T23:02:28.982Z,16.80
2022-08-12T23:04:58.617Z,16.81
2022-08-12T23:07:26.673Z,16.80
2022-08-12T23:10:04.402Z,16.77
2022-08-12T23:12:51.199Z,16.73
2022-08-12T23:15:21.652Z,16.69
2022-08-12T23:17:50.098Z,16.64
2022-08-12T23:20:22.631Z,16.60
2022-08-12T23:22:56.082Z,16.56
2022-08-12T23:25:32.721Z,16.51
2022-08-12T23:28:37.490Z,16.47
2022-08-12T23:31:06.485Z,16.43
2022-08-12T23:34:00.665Z,16.39
2022-08-12T23:36:39.235Z,16.36
2022-08-12T23:40:14.168Z,16.33
2022-08-12T23:42:18.125Z,16.28
2022-08-12T23:44:52.332Z,16.24
2022-08-12T23:47:23.823Z,16.22
2022-08-12T23:49:57.635Z,16.20
2022-08-12T23:52:27.628Z,16.20
2022-08-12T23:55:24.796Z,16.20
2022-08-12T23:58:22.407Z,16.21
